sensor_id;sensor_type;location;lat;lon;timestamp;pressure;altitude;pressure_sealevel;temperature;humidity
77867;BME280;67271;59.120;37.970;2023-07-13T00:05:21;98667.81;;;12.71;76.61
77867;BME280;67271;59.120;37.970;2023-07-13T00:07:48;98676.22;;;12.69;76.66
77867;BME280;67271;59.120;37.970;2023-07-13T00:10:15;98682.13;;;12.66;76.81
77867;BME280;67271;59.120;37.970;2023-07-13T00:12:41;98678.84;;;12.64;76.74
77867;BME280;67271;59.120;37.970;2023-07-13T00:15:25;98683.72;;;12.62;76.81
77867;BME280;67271;59.120;37.970;2023-07-13T00:17:53;98679.91;;;12.63;77.00
77867;BME280;67271;59.120;37.970;2023-07-13T00:20:21;98686.16;;;12.64;76.93
77867;BME280;67271;59.120;37.970;2023-07-13T00:22:49;98694.28;;;12.64;76.73
77867;BME280;67271;59.120;37.970;2023-07-13T00:25:15;98698.66;;;12.65;76.62
77867;BME280;67271;59.120;37.970;2023-07-13T00:27:42;98704.91;;;12.65;76.82
77867;BME280;67271;59.120;37.970;2023-07-13T00:30:10;98691.84;;;12.62;76.90
77867;BME280;67271;59.120;37.970;2023-07-13T00:32:36;98689.63;;;12.59;76.71
77867;BME280;67271;59.120;37.970;2023-07-13T00:35:03;98696.63;;;12.55;77.36
77867;BME280;67271;59.120;37.970;2023-07-13T00:37:30;98691.91;;;12.51;77.77
77867;BME280;67271;59.120;37.970;2023-07-13T00:39:59;98685.66;;;12.50;77.42
77867;BME280;67271;59.120;37.970;2023-07-13T00:42:25;98690.25;;;12.50;77.66
77867;BME280;67271;59.120;37.970;2023-07-13T00:47:46;98679.41;;;12.50;77.43
77867;BME280;67271;59.120;37.970;2023-07-13T00:50:14;98676.94;;;12.48;77.78
77867;BME280;67271;59.120;37.970;2023-07-13T00:52:45;98669.38;;;12.50;77.89
77867;BME280;67271;59.120;37.970;2023-07-13T00:55:15;98678.91;;;12.53;77.49
77867;BME280;67271;59.120;37.970;2023-07-13T00:57:42;98674.63;;;12.57;77.49
77867;BME280;67271;59.120;37.970;2023-07-13T01:00:09;98680.88;;;12.57;77.49
77867;BME280;67271;59.120;37.970;2023-07-13T01:02:37;98665.59;;;12.51;77.83
77867;BME280;67271;59.120;37.970;2023-07-13T01:05:11;98668.53;;;12.50;77.92
77867;BME280;67271;59.120;37.970;2023-07-13T01:07:40;98671.50;;;12.48;77.67
77867;BME280;67271;59.120;37.970;2023-07-13T01:10:08;98667.47;;;12.51;77.58
77867;BME280;67271;59.120;37.970;2023-07-13T01:12:34;98662.06;;;12.51;77.90
77867;BME280;67271;59.120;37.970;2023-07-13T01:15:01;98653.91;;;12.51;77.70
77867;BME280;67271;59.120;37.970;2023-07-13T01:17:29;98654.75;;;12.51;77.70
77867;BME280;67271;59.120;37.970;2023-07-13T01:19:55;98650.97;;;12.52;77.88
77867;BME280;67271;59.120;37.970;2023-07-13T01:22:22;98664.59;;;12.57;77.88
77867;BME280;67271;59.120;37.970;2023-07-13T01:24:53;98655.66;;;12.57;77.74
77867;BME280;67271;59.120;37.970;2023-07-13T01:27:24;98644.22;;;12.55;77.67
77867;BME280;67271;59.120;37.970;2023-07-13T01:29:51;98654.56;;;12.58;77.73
77867;BME280;67271;59.120;37.970;2023-07-13T01:32:23;98649.50;;;12.61;77.84
77867;BME280;67271;59.120;37.970;2023-07-13T01:34:51;98655.47;;;12.63;77.92
77867;BME280;67271;59.120;37.970;2023-07-13T01:37:22;98652.28;;;12.66;77.86
77867;BME280;67271;59.120;37.970;2023-07-13T01:39:48;98645.31;;;12.70;77.45
77867;BME280;67271;59.120;37.970;2023-07-13T01:42:14;98637.72;;;12.72;77.46
77867;BME280;67271;59.120;37.970;2023-07-13T01:44:40;98636.66;;;12.73;77.62
77867;BME280;67271;59.120;37.970;2023-07-13T01:47:07;98643.25;;;12.77;77.62
77867;BME280;67271;59.120;37.970;2023-07-13T01:49:33;98637.81;;;12.77;77.22
77867;BME280;67271;59.120;37.970;2023-07-13T01:51:59;98634.84;;;12.79;77.56
77867;BME280;67271;59.120;37.970;2023-07-13T01:54:25;98633.53;;;12.82;77.25
77867;BME280;67271;59.120;37.970;2023-07-13T01:57:00;98634.66;;;12.86;77.44
77867;BME280;67271;59.120;37.970;2023-07-13T01:59:26;98635.25;;;12.88;77.36
77867;BME280;67271;59.120;37.970;2023-07-13T02:01:52;98632.63;;;12.93;77.17
77867;BME280;67271;59.120;37.970;2023-07-13T02:04:18;98621.25;;;12.96;77.20
77867;BME280;67271;59.120;37.970;2023-07-13T02:06:44;98613.09;;;12.96;76.84
77867;BME280;67271;59.120;37.970;2023-07-13T02:09:10;98611.44;;;12.95;77.32
77867;BME280;67271;59.120;37.970;2023-07-13T02:11:36;98627.75;;;12.95;77.06
77867;BME280;67271;59.120;37.970;2023-07-13T02:14:02;98623.38;;;12.94;77.13
77867;BME280;67271;59.120;37.970;2023-07-13T02:16:29;98617.41;;;12.92;77.40
77867;BME280;67271;59.120;37.970;2023-07-13T02:18:56;98620.28;;;12.85;77.69
77867;BME280;67271;59.120;37.970;2023-07-13T02:21:23;98617.72;;;12.78;77.49
77867;BME280;67271;59.120;37.970;2023-07-13T02:23:51;98621.19;;;12.74;77.73
77867;BME280;67271;59.120;37.970;2023-07-13T02:26:18;98612.81;;;12.75;77.79
77867;BME280;67271;59.120;37.970;2023-07-13T02:28:44;98630.09;;;12.69;77.75
77867;BME280;67271;59.120;37.970;2023-07-13T02:31:14;98628.91;;;12.65;77.96
77867;BME280;67271;59.120;37.970;2023-07-13T02:33:41;98627.03;;;12.66;78.02
77867;BME280;67271;59.120;37.970;2023-07-13T02:36:08;98618.59;;;12.62;77.97
77867;BME280;67271;59.120;37.970;2023-07-13T02:38:34;98626.72;;;12.62;78.08
77867;BME280;67271;59.120;37.970;2023-07-13T02:41:03;98621.03;;;12.64;78.10
77867;BME280;67271;59.120;37.970;2023-07-13T02:43:29;98627.28;;;12.64;78.48
77867;BME280;67271;59.120;37.970;2023-07-13T02:45:55;98618.59;;;12.62;78.27
77867;BME280;67271;59.120;37.970;2023-07-13T02:48:21;98618.59;;;12.62;78.21
77867;BME280;67271;59.120;37.970;2023-07-13T02:50:48;98618.59;;;12.62;78.29
77867;BME280;67271;59.120;37.970;2023-07-13T02:53:14;98614.22;;;12.61;78.57
77867;BME280;67271;59.120;37.970;2023-07-13T02:55:42;98612.31;;;12.62;78.69
77867;BME280;67271;59.120;37.970;2023-07-13T02:58:13;98624.00;;;12.62;78.66
77867;BME280;67271;59.120;37.970;2023-07-13T03:00:46;98612.97;;;12.52;79.08
77867;BME280;67271;59.120;37.970;2023-07-13T03:03:14;98608.53;;;12.46;79.10
77867;BME280;67271;59.120;37.970;2023-07-13T03:05:42;98601.94;;;12.42;79.11
77867;BME280;67271;59.120;37.970;2023-07-13T03:08:09;98606.22;;;12.38;79.36
77867;BME280;67271;59.120;37.970;2023-07-13T03:10:36;98597.50;;;12.36;79.38
77867;BME280;67271;59.120;37.970;2023-07-13T03:13:02;98600.28;;;12.41;79.63
77867;BME280;67271;59.120;37.970;2023-07-13T03:15:28;98596.88;;;12.46;79.57
77867;BME280;67271;59.120;37.970;2023-07-13T03:17:57;98593.41;;;12.50;79.17
77867;BME280;67271;59.120;37.970;2023-07-13T03:20:32;98591.75;;;12.49;79.39
77867;BME280;67271;59.120;37.970;2023-07-13T03:22:58;98585.50;;;12.49;79.17
77867;BME280;67271;59.120;37.970;2023-07-13T03:25:26;98577.63;;;12.47;79.39
77867;BME280;67271;59.120;37.970;2023-07-13T03:27:53;98583.06;;;12.47;79.09
77867;BME280;67271;59.120;37.970;2023-07-13T03:30:19;98577.06;;;12.45;79.12
77867;BME280;67271;59.120;37.970;2023-07-13T03:32:45;98573.16;;;12.41;79.30
77867;BME280;67271;59.120;37.970;2023-07-13T03:35:11;98576.28;;;12.33;79.74
77867;BME280;67271;59.120;37.970;2023-07-13T03:37:36;98587.66;;;12.30;79.84
77867;BME280;67271;59.120;37.970;2023-07-13T03:40:13;98584.03;;;12.24;79.89
77867;BME280;67271;59.120;37.970;2023-07-13T03:42:38;98563.16;;;12.25;79.93
77867;BME280;67271;59.120;37.970;2023-07-13T03:45:05;98566.13;;;12.23;79.67
77867;BME280;67271;59.120;37.970;2023-07-13T03:47:32;98575.31;;;12.22;79.79
77867;BME280;67271;59.120;37.970;2023-07-13T03:50:01;98574.97;;;12.19;79.89
77867;BME280;67271;59.120;37.970;2023-07-13T03:52:27;98572.78;;;12.16;79.97
77867;BME280;67271;59.120;37.970;2023-07-13T03:54:53;98562.41;;;12.13;80.14
77867;BME280;67271;59.120;37.970;2023-07-13T03:57:20;98557.72;;;12.08;80.00
77867;BME280;67271;59.120;37.970;2023-07-13T03:59:46;98565.03;;;12.08;80.48
77867;BME280;67271;59.120;37.970;2023-07-13T04:02:12;98566.09;;;12.07;80.51
77867;BME280;67271;59.120;37.970;2023-07-13T04:04:38;98568.72;;;12.01;80.29
77867;BME280;67271;59.120;37.970;2023-07-13T04:07:06;98570.84;;;11.99;80.77
77867;BME280;67271;59.120;37.970;2023-07-13T04:09:34;98562.97;;;11.98;81.00
77867;BME280;67271;59.120;37.970;2023-07-13T04:12:00;98563.31;;;12.01;80.84
77867;BME280;67271;59.120;37.970;2023-07-13T04:14:27;98559.25;;;12.04;80.86
77867;BME280;67271;59.120;37.970;2023-07-13T04:16:53;98560.75;;;12.12;80.43
77867;BME280;67271;59.120;37.970;2023-07-13T04:19:20;98559.44;;;12.14;80.35
77867;BME280;67271;59.120;37.970;2023-07-13T04:21:46;98567.34;;;12.16;80.54
77867;BME280;67271;59.120;37.970;2023-07-13T04:24:12;98565.78;;;12.20;80.12
77867;BME280;67271;59.120;37.970;2023-07-13T04:26:38;98562.81;;;12.21;80.24
77867;BME280;67271;59.120;37.970;2023-07-13T04:29:06;98557.75;;;12.25;80.63
77867;BME280;67271;59.120;37.970;2023-07-13T04:31:33;98567.75;;;12.24;80.48
77867;BME280;67271;59.120;37.970;2023-07-13T04:33:59;98560.69;;;12.23;80.32
77867;BME280;67271;59.120;37.970;2023-07-13T04:36:25;98570.22;;;12.26;80.22
77867;BME280;67271;59.120;37.970;2023-07-13T04:38:54;98564.78;;;12.26;80.62
77867;BME280;67271;59.120;37.970;2023-07-13T04:41:21;98566.78;;;12.30;80.38
77867;BME280;67271;59.120;37.970;2023-07-13T04:43:47;98558.72;;;12.35;80.11
77867;BME280;67271;59.120;37.970;2023-07-13T04:46:15;98565.44;;;12.33;80.66
77867;BME280;67271;59.120;37.970;2023-07-13T04:48:43;98564.88;;;12.31;80.63
77867;BME280;67271;59.120;37.970;2023-07-13T04:51:09;98567.38;;;12.32;80.54
77867;BME280;67271;59.120;37.970;2023-07-13T04:53:35;98572.03;;;12.37;80.40
77867;BME280;67271;59.120;37.970;2023-07-13T04:56:02;98569.09;;;12.38;80.44
77867;BME280;67271;59.120;37.970;2023-07-13T04:58:29;98567.75;;;12.41;80.26
77867;BME280;67271;59.120;37.970;2023-07-13T05:01:05;98570.31;;;12.48;80.52
77867;BME280;67271;59.120;37.970;2023-07-13T05:03:32;98563.56;;;12.50;80.37
77867;BME280;67271;59.120;37.970;2023-07-13T05:06:00;98564.06;;;12.47;80.13
77867;BME280;67271;59.120;37.970;2023-07-13T05:08:26;98560.34;;;12.53;80.02
77867;BME280;67271;59.120;37.970;2023-07-13T05:10:53;98557.22;;;12.61;80.19
77867;BME280;67271;59.120;37.970;2023-07-13T05:13:19;98550.22;;;12.65;79.73
77867;BME280;67271;59.120;37.970;2023-07-13T05:15:45;98544.53;;;12.67;80.00
77867;BME280;67271;59.120;37.970;2023-07-13T05:18:11;98541.50;;;12.63;80.06
77867;BME280;67271;59.120;37.970;2023-07-13T05:20:37;98546.84;;;12.58;80.20
77867;BME280;67271;59.120;37.970;2023-07-13T05:23:03;98548.63;;;12.48;80.67
77867;BME280;67271;59.120;37.970;2023-07-13T05:25:29;98556.75;;;12.48;80.84
77867;BME280;67271;59.120;37.970;2023-07-13T05:27:55;98557.81;;;12.47;80.74
77867;BME280;67271;59.120;37.970;2023-07-13T05:30:21;98575.41;;;12.44;80.55
77867;BME280;67271;59.120;37.970;2023-07-13T05:32:47;98568.00;;;12.39;80.64
77867;BME280;67271;59.120;37.970;2023-07-13T05:35:13;98569.81;;;12.34;81.09
77867;BME280;67271;59.120;37.970;2023-07-13T05:37:39;98564.88;;;12.31;80.93
77867;BME280;67271;59.120;37.970;2023-07-13T05:40:05;98559.94;;;12.28;80.81
77867;BME280;67271;59.120;37.970;2023-07-13T05:42:31;98548.03;;;12.29;81.00
77867;BME280;67271;59.120;37.970;2023-07-13T05:44:57;98543.19;;;12.31;81.14
77867;BME280;67271;59.120;37.970;2023-07-13T05:47:23;98538.91;;;12.35;80.88
77867;BME280;67271;59.120;37.970;2023-07-13T05:49:49;98528.38;;;12.38;80.78
77867;BME280;67271;59.120;37.970;2023-07-13T05:52:18;98528.47;;;12.44;80.62
77867;BME280;67271;59.120;37.970;2023-07-13T05:54:44;98528.88;;;12.52;81.02
77867;BME280;67271;59.120;37.970;2023-07-13T05:57:10;98531.75;;;12.62;80.75
77867;BME280;67271;59.120;37.970;2023-07-13T05:59:36;98540.25;;;12.71;80.29
77867;BME280;67271;59.120;37.970;2023-07-13T06:02:02;98537.53;;;12.71;80.52
77867;BME280;67271;59.120;37.970;2023-07-13T06:04:28;98537.16;;;12.62;80.68
77867;BME280;67271;59.120;37.970;2023-07-13T06:06:54;98532.56;;;12.63;80.98
77867;BME280;67271;59.120;37.970;2023-07-13T06:09:20;98534.69;;;12.61;80.66
77867;BME280;67271;59.120;37.970;2023-07-13T06:11:47;98539.31;;;12.60;80.88
77867;BME280;67271;59.120;37.970;2023-07-13T06:14:13;98534.94;;;12.59;80.75
77867;BME280;67271;59.120;37.970;2023-07-13T06:16:40;98533.28;;;12.58;81.08
77867;BME280;67271;59.120;37.970;2023-07-13T06:19:06;98527.28;;;12.56;80.89
77867;BME280;67271;59.120;37.970;2023-07-13T06:21:32;98532.72;;;12.56;81.21
77867;BME280;67271;59.120;37.970;2023-07-13T06:23:58;98537.00;;;12.52;81.17
77867;BME280;67271;59.120;37.970;2023-07-13T06:26:27;98537.00;;;12.52;80.83
77867;BME280;67271;59.120;37.970;2023-07-13T06:28:54;98532.66;;;12.51;81.35
77867;BME280;67271;59.120;37.970;2023-07-13T06:31:20;98533.94;;;12.49;81.23
77867;BME280;67271;59.120;37.970;2023-07-13T06:33:45;98541.25;;;12.48;80.90
77867;BME280;67271;59.120;37.970;2023-07-13T06:36:11;98536.34;;;12.45;81.45
77867;BME280;67271;59.120;37.970;2023-07-13T06:38:38;98537.50;;;12.49;80.85
77867;BME280;67271;59.120;37.970;2023-07-13T06:41:06;98544.25;;;12.47;81.19
77867;BME280;67271;59.120;37.970;2023-07-13T06:43:33;98545.31;;;12.46;80.99
77867;BME280;67271;59.120;37.970;2023-07-13T06:45:59;98534.22;;;12.47;81.17
77867;BME280;67271;59.120;37.970;2023-07-13T06:48:25;98536.44;;;12.50;81.27
77867;BME280;67271;59.120;37.970;2023-07-13T06:50:51;98541.38;;;12.53;80.94
77867;BME280;67271;59.120;37.970;2023-07-13T06:53:19;98532.66;;;12.51;80.98
77867;BME280;67271;59.120;37.970;2023-07-13T06:55:45;98531.34;;;12.54;80.73
77867;BME280;67271;59.120;37.970;2023-07-13T06:58:12;98534.88;;;12.54;80.87
77867;BME280;67271;59.120;37.970;2023-07-13T07:00:40;98528.44;;;12.60;80.79
77867;BME280;67271;59.120;37.970;2023-07-13T07:03:07;98523.66;;;12.67;80.52
77867;BME280;67271;59.120;37.970;2023-07-13T07:05:33;98524.88;;;12.76;80.49
77867;BME280;67271;59.120;37.970;2023-07-13T07:07:59;98528.16;;;12.78;80.44
77867;BME280;67271;59.120;37.970;2023-07-13T07:10:25;98523.63;;;12.84;80.48
77867;BME280;67271;59.120;37.970;2023-07-13T07:12:51;98526.00;;;12.80;80.35
77867;BME280;67271;59.120;37.970;2023-07-13T07:15:18;98527.16;;;12.85;80.41
77867;BME280;67271;59.120;37.970;2023-07-13T07:17:44;98532.06;;;12.88;80.13
77867;BME280;67271;59.120;37.970;2023-07-13T07:20:10;98530.94;;;12.84;80.55
77867;BME280;67271;59.120;37.970;2023-07-13T07:22:43;98534.22;;;12.86;80.32
77867;BME280;67271;59.120;37.970;2023-07-13T07:25:09;98543.19;;;12.86;80.58
77867;BME280;67271;59.120;37.970;2023-07-13T07:27:35;98543.19;;;12.86;80.57
77867;BME280;67271;59.120;37.970;2023-07-13T07:30:01;98541.09;;;12.93;80.33
77867;BME280;67271;59.120;37.970;2023-07-13T07:32:29;98548.00;;;13.01;80.07
77867;BME280;67271;59.120;37.970;2023-07-13T07:34:56;98544.53;;;13.05;79.97
77867;BME280;67271;59.120;37.970;2023-07-13T07:37:21;98552.69;;;13.05;80.14
77867;BME280;67271;59.120;37.970;2023-07-13T07:39:48;98557.88;;;13.07;80.05
77867;BME280;67271;59.120;37.970;2023-07-13T07:42:14;98559.44;;;13.03;80.18
77867;BME280;67271;59.120;37.970;2023-07-13T07:44:40;98553.94;;;12.98;80.63
77867;BME280;67271;59.120;37.970;2023-07-13T07:47:07;98548.81;;;13.01;80.57
77867;BME280;67271;59.120;37.970;2023-07-13T07:49:33;98550.41;;;13.14;80.11
77867;BME280;67271;59.120;37.970;2023-07-13T07:51:59;98548.84;;;13.23;79.76
77867;BME280;67271;59.120;37.970;2023-07-13T07:54:25;98548.38;;;13.26;80.10
77867;BME280;67271;59.120;37.970;2023-07-13T07:56:51;98553.78;;;13.26;79.99
77867;BME280;67271;59.120;37.970;2023-07-13T07:59:17;98562.44;;;13.23;80.19
77867;BME280;67271;59.120;37.970;2023-07-13T08:01:43;98566.75;;;13.19;80.49
77867;BME280;67271;59.120;37.970;2023-07-13T08:04:12;98569.22;;;13.21;80.19
77867;BME280;67271;59.120;37.970;2023-07-13T08:06:38;98566.69;;;13.14;80.58
77867;BME280;67271;59.120;37.970;2023-07-13T08:09:04;98586.09;;;13.06;80.88
77867;BME280;67271;59.120;37.970;2023-07-13T08:11:30;98581.69;;;13.00;80.77
77867;BME280;67271;59.120;37.970;2023-07-13T08:13:56;98581.03;;;12.93;81.04
77867;BME280;67271;59.120;37.970;2023-07-13T08:16:22;98573.38;;;12.90;81.26
77867;BME280;67271;59.120;37.970;2023-07-13T08:18:49;98573.63;;;12.88;81.39
77867;BME280;67271;59.120;37.970;2023-07-13T08:21:15;98572.31;;;12.91;81.04
77867;BME280;67271;59.120;37.970;2023-07-13T08:23:41;98560.44;;;12.97;80.90
77867;BME280;67271;59.120;37.970;2023-07-13T08:26:08;98565.63;;;12.98;81.34
77867;BME280;67271;59.120;37.970;2023-07-13T08:28:35;98563.75;;;12.99;81.01
77867;BME280;67271;59.120;37.970;2023-07-13T08:31:06;98558.94;;;13.06;80.63
77867;BME280;67271;59.120;37.970;2023-07-13T08:33:36;98570.47;;;13.13;80.70
77867;BME280;67271;59.120;37.970;2023-07-13T08:36:04;98580.81;;;13.16;80.67
77867;BME280;67271;59.120;37.970;2023-07-13T08:38:31;98582.97;;;13.14;80.39
77867;BME280;67271;59.120;37.970;2023-07-13T08:40:57;98594.97;;;13.18;80.55
77867;BME280;67271;59.120;37.970;2023-07-13T08:43:27;98593.66;;;13.21;80.77
77867;BME280;67271;59.120;37.970;2023-07-13T08:51:18;98575.53;;;13.26;80.72
77867;BME280;67271;59.120;37.970;2023-07-13T08:53:55;98562.00;;;13.31;80.93
77867;BME280;67271;59.120;37.970;2023-07-13T08:56:25;98583.38;;;13.44;80.43
77867;BME280;67271;59.120;37.970;2023-07-13T08:59:09;98593.19;;;13.45;80.47
77867;BME280;67271;59.120;37.970;2023-07-13T09:14:42;98602.38;;;13.23;81.01
77867;BME280;67271;59.120;37.970;2023-07-13T09:17:17;98602.53;;;13.16;81.32
77867;BME280;67271;59.120;37.970;2023-07-13T09:19:47;98604.09;;;13.12;81.51
77867;BME280;67271;59.120;37.970;2023-07-13T09:22:18;98593.03;;;13.13;81.47
77867;BME280;67271;59.120;37.970;2023-07-13T09:24:52;98590.88;;;13.15;81.50
77867;BME280;67271;59.120;37.970;2023-07-13T09:27:23;98588.41;;;13.14;81.55
77867;BME280;67271;59.120;37.970;2023-07-13T09:32:41;98587.16;;;13.05;81.66
77867;BME280;67271;59.120;37.970;2023-07-13T09:35:11;98576.31;;;13.05;81.65
77867;BME280;67271;59.120;37.970;2023-07-13T09:37:38;98574.06;;;13.02;81.55
77867;BME280;67271;59.120;37.970;2023-07-13T09:40:17;98575.09;;;12.96;81.99
77867;BME280;67271;59.120;37.970;2023-07-13T09:42:53;98589.66;;;12.90;82.06
77867;BME280;67271;59.120;37.970;2023-07-13T09:45:30;98591.22;;;12.86;82.13
77867;BME280;67271;59.120;37.970;2023-07-13T09:48:05;98594.03;;;12.91;82.02
77867;BME280;67271;59.120;37.970;2023-07-13T09:50:32;98591.75;;;12.83;81.86
77867;BME280;67271;59.120;37.970;2023-07-13T09:52:57;98599.31;;;12.80;82.12
77867;BME280;67271;59.120;37.970;2023-07-13T09:57:54;98620.44;;;12.78;82.09
77867;BME280;67271;59.120;37.970;2023-07-13T10:00:24;98617.25;;;12.82;82.36
77867;BME280;67271;59.120;37.970;2023-07-13T10:03:15;98622.19;;;12.85;82.03
77867;BME280;67271;59.120;37.970;2023-07-13T10:05:45;98620.53;;;12.84;82.00
77867;BME280;67271;59.120;37.970;2023-07-13T10:08:18;98627.44;;;12.91;82.00
77867;BME280;67271;59.120;37.970;2023-07-13T10:10:46;98619.13;;;12.98;81.98
77867;BME280;67271;59.120;37.970;2023-07-13T10:13:37;98619.50;;;13.06;81.95
77867;BME280;67271;59.120;37.970;2023-07-13T10:16:06;98629.63;;;13.11;81.97
77867;BME280;67271;59.120;37.970;2023-07-13T10:18:54;98633.97;;;13.12;81.78
77867;BME280;67271;59.120;37.970;2023-07-13T10:21:23;98627.91;;;13.22;81.96
77867;BME280;67271;59.120;37.970;2023-07-13T10:23:55;98627.16;;;13.26;81.62
77867;BME280;67271;59.120;37.970;2023-07-13T10:26:26;98627.63;;;13.23;82.05
77867;BME280;67271;59.120;37.970;2023-07-13T10:28:55;98636.69;;;13.29;81.87
77867;BME280;67271;59.120;37.970;2023-07-13T10:31:22;98631.66;;;13.37;81.79
77867;BME280;67271;59.120;37.970;2023-07-13T10:33:49;98631.28;;;13.50;81.62
77867;BME280;67271;59.120;37.970;2023-07-13T10:36:32;98632.09;;;13.73;81.35
77867;BME280;67271;59.120;37.970;2023-07-13T10:39:02;98641.03;;;13.95;80.86
77867;BME280;67271;59.120;37.970;2023-07-13T10:41:35;98637.72;;;14.15;80.03
77867;BME280;67271;59.120;37.970;2023-07-13T10:44:04;98640.06;;;14.33;79.98
77867;BME280;67271;59.120;37.970;2023-07-13T10:46:32;98648.63;;;14.42;79.83
77867;BME280;67271;59.120;37.970;2023-07-13T10:49:02;98656.22;;;14.40;79.83
77867;BME280;67271;59.120;37.970;2023-07-13T10:51:30;98656.97;;;14.35;80.25
77867;BME280;67271;59.120;37.970;2023-07-13T10:56:42;98657.81;;;14.14;80.77
77867;BME280;67271;59.120;37.970;2023-07-13T11:04:44;98656.75;;;14.15;80.05
77867;BME280;67271;59.120;37.970;2023-07-13T11:09:50;98661.69;;;14.18;79.83
77867;BME280;67271;59.120;37.970;2023-07-13T11:23:06;98661.19;;;14.48;79.26
77867;BME280;67271;59.120;37.970;2023-07-13T11:25:35;98664.44;;;14.45;79.24
77867;BME280;67271;59.120;37.970;2023-07-13T11:28:16;98666.50;;;14.38;79.46
77867;BME280;67271;59.120;37.970;2023-07-13T11:33:23;98665.47;;;14.39;79.90
77867;BME280;67271;59.120;37.970;2023-07-13T11:36:03;98673.13;;;14.42;79.99
77867;BME280;67271;59.120;37.970;2023-07-13T11:38:38;98676.72;;;14.47;79.63
77867;BME280;67271;59.120;37.970;2023-07-13T11:43:33;98672.47;;;14.34;80.25
77867;BME280;67271;59.120;37.970;2023-07-13T11:46:16;98680.03;;;14.27;80.24
77867;BME280;67271;59.120;37.970;2023-07-13T11:48:45;98674.59;;;14.27;80.29
77867;BME280;67271;59.120;37.970;2023-07-13T11:51:33;98668.63;;;14.30;80.31
77867;BME280;67271;59.120;37.970;2023-07-13T11:54:15;98674.19;;;14.41;79.93
77867;BME280;67271;59.120;37.970;2023-07-13T11:56:45;98684.06;;;14.47;80.18
77867;BME280;67271;59.120;37.970;2023-07-13T11:59:12;98683.75;;;14.43;79.96
77867;BME280;67271;59.120;37.970;2023-07-13T12:01:51;98683.22;;;14.46;80.16
77867;BME280;67271;59.120;37.970;2023-07-13T12:04:29;98687.16;;;14.60;79.87
77867;BME280;67271;59.120;37.970;2023-07-13T12:07:07;98684.84;;;14.74;79.25
77867;BME280;67271;59.120;37.970;2023-07-13T12:09:35;98694.13;;;14.73;79.36
77867;BME280;67271;59.120;37.970;2023-07-13T12:12:02;98690.84;;;14.76;79.36
77867;BME280;67271;59.120;37.970;2023-07-13T12:14:28;98693.72;;;14.91;79.02
77867;BME280;67271;59.120;37.970;2023-07-13T12:17:29;98693.00;;;15.06;78.68
77867;BME280;67271;59.120;37.970;2023-07-13T12:19:54;98697.75;;;15.21;78.56
77867;BME280;67271;59.120;37.970;2023-07-13T12:22:20;98700.22;;;15.27;78.50
77867;BME280;67271;59.120;37.970;2023-07-13T12:24:48;98704.03;;;15.26;78.34
77867;BME280;67271;59.120;37.970;2023-07-13T12:27:23;98702.84;;;15.12;78.76
77867;BME280;67271;59.120;37.970;2023-07-13T12:30:03;98711.81;;;15.07;78.86
77867;BME280;67271;59.120;37.970;2023-07-13T12:32:31;98710.66;;;14.98;79.41
77867;BME280;67271;59.120;37.970;2023-07-13T12:35:14;98712.78;;;14.91;79.35
77867;BME280;67271;59.120;37.970;2023-07-13T12:37:45;98719.03;;;14.92;79.49
77867;BME280;67271;59.120;37.970;2023-07-13T12:40:16;98713.59;;;14.92;79.32
77867;BME280;67271;59.120;37.970;2023-07-13T12:42:49;98719.41;;;15.00;79.31
77867;BME280;67271;59.120;37.970;2023-07-13T12:45:23;98728.91;;;14.98;78.98
77867;BME280;67271;59.120;37.970;2023-07-13T12:47:54;98729.13;;;14.91;79.08
77867;BME280;67271;59.120;37.970;2023-07-13T12:50:23;98728.53;;;14.89;79.43
77867;BME280;67271;59.120;37.970;2023-07-13T12:52:54;98732.31;;;14.83;79.66
77867;BME280;67271;59.120;37.970;2023-07-13T12:55:23;98728.50;;;14.84;79.57
77867;BME280;67271;59.120;37.970;2023-07-13T12:57:52;98735.09;;;14.88;79.40
77867;BME280;67271;59.120;37.970;2023-07-13T13:00:29;98727.47;;;14.90;79.34
77867;BME280;67271;59.120;37.970;2023-07-13T13:03:02;98726.41;;;14.91;79.55
77867;BME280;67271;59.120;37.970;2023-07-13T13:05:30;98725.66;;;15.01;79.63
77867;BME280;67271;59.120;37.970;2023-07-13T13:07:57;98723.78;;;15.06;79.30
77867;BME280;67271;59.120;37.970;2023-07-13T13:10:23;98728.16;;;15.07;78.91
77867;BME280;67271;59.120;37.970;2023-07-13T13:12:50;98730.84;;;15.02;79.13
77867;BME280;67271;59.120;37.970;2023-07-13T13:15:16;98729.78;;;15.03;79.18
77867;BME280;67271;59.120;37.970;2023-07-13T13:17:42;98732.69;;;14.97;79.18
77867;BME280;67271;59.120;37.970;2023-07-13T13:20:21;98736.00;;;14.99;79.32
77867;BME280;67271;59.120;37.970;2023-07-13T13:22:47;98743.09;;;15.00;79.20
77867;BME280;67271;59.120;37.970;2023-07-13T13:25:14;98746.06;;;14.98;79.21
77867;BME280;67271;59.120;37.970;2023-07-13T13:27:42;98745.47;;;14.91;79.25
77867;BME280;67271;59.120;37.970;2023-07-13T13:30:13;98747.00;;;14.82;79.62
77867;BME280;67271;59.120;37.970;2023-07-13T13:32:44;98748.16;;;14.86;79.49
77867;BME280;67271;59.120;37.970;2023-07-13T13:35:17;98743.56;;;14.92;79.39
77867;BME280;67271;59.120;37.970;2023-07-13T13:37:45;98749.81;;;14.92;79.34
77867;BME280;67271;59.120;37.970;2023-07-13T13:40:19;98754.19;;;14.93;79.11
77867;BME280;67271;59.120;37.970;2023-07-13T13:42:46;98755.28;;;14.92;79.12
77867;BME280;67271;59.120;37.970;2023-07-13T13:45:21;98757.13;;;14.87;79.28
77867;BME280;67271;59.120;37.970;2023-07-13T13:47:47;98765.38;;;14.97;79.37
77867;BME280;67271;59.120;37.970;2023-07-13T13:50:18;98761.94;;;15.06;78.82
77867;BME280;67271;59.120;37.970;2023-07-13T13:52:45;98758.63;;;15.04;78.92
77867;BME280;67271;59.120;37.970;2023-07-13T13:55:19;98768.09;;;14.97;79.18